sensor_id;sensor_type;location;lat;lon;timestamp;temperature;humidity
66119;DHT22;52912;48.564;9.302;2024-01-30T00:00:50;4.72;87.71
66119;DHT22;52912;48.564;9.302;2024-01-30T00:03:16;4.73;87.59
66119;DHT22;52912;48.564;9.302;2024-01-30T00:05:42;4.60;87.68
66119;DHT22;52912;48.564;9.302;2024-01-30T00:08:08;4.59;88.04
66119;DHT22;52912;48.564;9.302;2024-01-30T00:10:33;4.56;88.02
66119;DHT22;52912;48.564;9.302;2024-01-30T00:12:59;4.66;87.28
66119;DHT22;52912;48.564;9.302;2024-01-30T00:15:24;4.53;87.44
66119;DHT22;52912;48.564;9.302;2024-01-30T00:17:50;4.49;87.33
66119;DHT22;52912;48.564;9.302;2024-01-30T00:20:15;4.35;87.34
66119;DHT22;52912;48.564;9.302;2024-01-30T00:22:42;4.21;87.82
66119;DHT22;52912;48.564;9.302;2024-01-30T00:25:08;4.04;88.26
66119;DHT22;52912;48.564;9.302;2024-01-30T00:27:33;4.04;88.27
66119;DHT22;52912;48.564;9.302;2024-01-30T00:29:58;4.04;88.33
66119;DHT22;52912;48.564;9.302;2024-01-30T00:32:24;4.03;88.32
66119;DHT22;52912;48.564;9.302;2024-01-30T00:34:49;3.96;88.30
66119;DHT22;52912;48.564;9.302;2024-01-30T00:37:15;3.86;88.92
66119;DHT22;52912;48.564;9.302;2024-01-30T00:39:42;3.75;88.95
66119;DHT22;52912;48.564;9.302;2024-01-30T00:42:07;3.68;89.02
66119;DHT22;52912;48.564;9.302;2024-01-30T00:44:34;3.75;88.85
66119;DHT22;52912;48.564;9.302;2024-01-30T00:47:00;3.75;88.83
66119;DHT22;52912;48.564;9.302;2024-01-30T00:49:25;3.83;88.55
66119;DHT22;52912;48.564;9.302;2024-01-30T00:51:51;3.87;88.41
66119;DHT22;52912;48.564;9.302;2024-01-30T00:54:16;3.76;88.97
66119;DHT22;52912;48.564;9.302;2024-01-30T00:56:43;3.68;89.07
66119;DHT22;52912;48.564;9.302;2024-01-30T00:59:08;3.79;88.82
66119;DHT22;52912;48.564;9.302;2024-01-30T01:01:34;3.85;88.64
66119;DHT22;52912;48.564;9.302;2024-01-30T01:03:59;3.85;88.86
66119;DHT22;52912;48.564;9.302;2024-01-30T01:06:25;3.72;89.04
66119;DHT22;52912;48.564;9.302;2024-01-30T01:08:50;3.61;89.08
66119;DHT22;52912;48.564;9.302;2024-01-30T01:11:15;3.56;88.96
66119;DHT22;52912;48.564;9.302;2024-01-30T01:13:42;3.42;89.26
66119;DHT22;52912;48.564;9.302;2024-01-30T01:16:08;3.27;89.64
66119;DHT22;52912;48.564;9.302;2024-01-30T01:18:33;3.11;90.70
66119;DHT22;52912;48.564;9.302;2024-01-30T01:20:59;3.11;90.41
66119;DHT22;52912;48.564;9.302;2024-01-30T01:23:24;3.00;90.84
66119;DHT22;52912;48.564;9.302;2024-01-30T01:25:49;3.03;90.62
66119;DHT22;52912;48.564;9.302;2024-01-30T01:28:15;3.07;90.43
66119;DHT22;52912;48.564;9.302;2024-01-30T01:30:42;3.14;90.09
66119;DHT22;52912;48.564;9.302;2024-01-30T01:33:07;3.01;90.28
66119;DHT22;52912;48.564;9.302;2024-01-30T01:35:33;2.76;91.35
66119;DHT22;52912;48.564;9.302;2024-01-30T01:37:58;2.69;91.58
66119;DHT22;52912;48.564;9.302;2024-01-30T01:40:24;2.69;91.74
66119;DHT22;52912;48.564;9.302;2024-01-30T01:42:50;2.78;91.46
66119;DHT22;52912;48.564;9.302;2024-01-30T01:45:15;2.89;91.20
66119;DHT22;52912;48.564;9.302;2024-01-30T01:47:43;3.08;90.48
66119;DHT22;52912;48.564;9.302;2024-01-30T01:50:09;3.46;89.65
66119;DHT22;52912;48.564;9.302;2024-01-30T01:52:35;3.61;88.88
66119;DHT22;52912;48.564;9.302;2024-01-30T01:55:01;3.68;88.77
66119;DHT22;52912;48.564;9.302;2024-01-30T01:57:26;3.66;88.72
66119;DHT22;52912;48.564;9.302;2024-01-30T01:59:52;3.61;88.62
66119;DHT22;52912;48.564;9.302;2024-01-30T02:02:19;3.46;89.41
66119;DHT22;52912;48.564;9.302;2024-01-30T02:04:46;3.45;89.44
66119;DHT22;52912;48.564;9.302;2024-01-30T02:07:11;3.30;89.64
66119;DHT22;52912;48.564;9.302;2024-01-30T02:09:36;3.21;89.66
66119;DHT22;52912;48.564;9.302;2024-01-30T02:12:02;3.10;90.49
66119;DHT22;52912;48.564;9.302;2024-01-30T02:14:28;3.00;90.61
66119;DHT22;52912;48.564;9.302;2024-01-30T02:16:53;2.96;90.68
66119;DHT22;52912;48.564;9.302;2024-01-30T02:19:19;2.89;90.78
66119;DHT22;52912;48.564;9.302;2024-01-30T02:21:46;2.75;91.07
66119;DHT22;52912;48.564;9.302;2024-01-30T02:24:11;2.66;91.27
66119;DHT22;52912;48.564;9.302;2024-01-30T02:26:37;2.55;91.44
66119;DHT22;52912;48.564;9.302;2024-01-30T02:29:02;2.37;91.93
66119;DHT22;52912;48.564;9.302;2024-01-30T02:31:28;2.20;92.66
66119;DHT22;52912;48.564;9.302;2024-01-30T02:33:53;2.10;93.22
66119;DHT22;52912;48.564;9.302;2024-01-30T02:36:19;2.09;93.32
66119;DHT22;52912;48.564;9.302;2024-01-30T02:38:45;2.02;93.53
66119;DHT22;52912;48.564;9.302;2024-01-30T02:41:11;2.07;93.44
66119;DHT22;52912;48.564;9.302;2024-01-30T02:43:36;2.09;93.47
66119;DHT22;52912;48.564;9.302;2024-01-30T02:46:02;2.14;93.34
66119;DHT22;52912;48.564;9.302;2024-01-30T02:48:27;2.13;92.86
66119;DHT22;52912;48.564;9.302;2024-01-30T02:50:53;2.09;92.84
66119;DHT22;52912;48.564;9.302;2024-01-30T02:53:18;2.05;92.88
66119;DHT22;52912;48.564;9.302;2024-01-30T02:55:45;2.07;92.89
66119;DHT22;52912;48.564;9.302;2024-01-30T02:58:10;1.97;92.98
66119;DHT22;52912;48.564;9.302;2024-01-30T03:00:36;2.00;92.97
66119;DHT22;52912;48.564;9.302;2024-01-30T03:03:01;1.97;93.06
66119;DHT22;52912;48.564;9.302;2024-01-30T03:05:27;1.97;92.98
66119;DHT22;52912;48.564;9.302;2024-01-30T03:07:52;1.92;92.96
66119;DHT22;52912;48.564;9.302;2024-01-30T03:10:18;1.96;93.16
66119;DHT22;52912;48.564;9.302;2024-01-30T03:12:44;1.89;92.99
66119;DHT22;52912;48.564;9.302;2024-01-30T03:15:10;1.85;92.77
66119;DHT22;52912;48.564;9.302;2024-01-30T03:17:35;1.78;93.13
66119;DHT22;52912;48.564;9.302;2024-01-30T03:20:01;1.68;93.76
66119;DHT22;52912;48.564;9.302;2024-01-30T03:22:26;1.71;93.80
66119;DHT22;52912;48.564;9.302;2024-01-30T03:24:51;1.69;94.38
66119;DHT22;52912;48.564;9.302;2024-01-30T03:27:17;1.73;93.53
66119;DHT22;52912;48.564;9.302;2024-01-30T03:29:44;1.66;93.58
66119;DHT22;52912;48.564;9.302;2024-01-30T03:32:09;1.63;93.74
66119;DHT22;52912;48.564;9.302;2024-01-30T03:34:35;1.58;94.00
66119;DHT22;52912;48.564;9.302;2024-01-30T03:37:00;1.59;93.91
66119;DHT22;52912;48.564;9.302;2024-01-30T03:39:25;1.55;93.81
66119;DHT22;52912;48.564;9.302;2024-01-30T03:41:51;1.56;94.00
66119;DHT22;52912;48.564;9.302;2024-01-30T03:44:16;1.58;93.73
66119;DHT22;52912;48.564;9.302;2024-01-30T03:46:43;1.55;94.00
66119;DHT22;52912;48.564;9.302;2024-01-30T03:49:09;1.52;94.01
66119;DHT22;52912;48.564;9.302;2024-01-30T03:51:35;1.47;94.25
66119;DHT22;52912;48.564;9.302;2024-01-30T03:54:00;1.44;94.45
66119;DHT22;52912;48.564;9.302;2024-01-30T03:56:26;1.47;94.44
66119;DHT22;52912;48.564;9.302;2024-01-30T03:58:51;1.38;94.48
66119;DHT22;52912;48.564;9.302;2024-01-30T04:01:17;1.34;94.40
66119;DHT22;52912;48.564;9.302;2024-01-30T04:03:43;1.33;94.78
66119;DHT22;52912;48.564;9.302;2024-01-30T04:06:09;1.41;94.97
66119;DHT22;52912;48.564;9.302;2024-01-30T04:08:34;1.45;94.71
66119;DHT22;52912;48.564;9.302;2024-01-30T04:11:03;1.41;94.31
66119;DHT22;52912;48.564;9.302;2024-01-30T04:13:29;1.43;94.67
66119;DHT22;52912;48.564;9.302;2024-01-30T04:15:54;1.43;95.12
66119;DHT22;52912;48.564;9.302;2024-01-30T04:18:19;1.48;94.91
66119;DHT22;52912;48.564;9.302;2024-01-30T04:20:46;1.45;94.90
66119;DHT22;52912;48.564;9.302;2024-01-30T04:23:12;1.51;94.73
66119;DHT22;52912;48.564;9.302;2024-01-30T04:25:37;1.47;93.83
66119;DHT22;52912;48.564;9.302;2024-01-30T04:28:03;1.30;94.49
66119;DHT22;52912;48.564;9.302;2024-01-30T04:30:28;1.23;94.50
66119;DHT22;52912;48.564;9.302;2024-01-30T04:32:54;1.24;94.79
66119;DHT22;52912;48.564;9.302;2024-01-30T04:35:19;1.22;95.03
66119;DHT22;52912;48.564;9.302;2024-01-30T04:37:46;1.22;95.55
66119;DHT22;52912;48.564;9.302;2024-01-30T04:40:12;1.26;95.45
66119;DHT22;52912;48.564;9.302;2024-01-30T04:42:38;1.26;95.35
66119;DHT22;52912;48.564;9.302;2024-01-30T04:45:03;1.28;94.93
66119;DHT22;52912;48.564;9.302;2024-01-30T04:47:29;1.26;94.75
66119;DHT22;52912;48.564;9.302;2024-01-30T04:49:54;1.12;94.86
66119;DHT22;52912;48.564;9.302;2024-01-30T04:52:20;1.04;95.77
66119;DHT22;52912;48.564;9.302;2024-01-30T04:54:46;1.12;95.57
66119;DHT22;52912;48.564;9.302;2024-01-30T04:57:12;1.22;95.25
66119;DHT22;52912;48.564;9.302;2024-01-30T04:59:37;1.20;95.00
66119;DHT22;52912;48.564;9.302;2024-01-30T05:02:03;1.23;95.22
66119;DHT22;52912;48.564;9.302;2024-01-30T05:04:28;1.34;95.14
66119;DHT22;52912;48.564;9.302;2024-01-30T05:06:54;1.55;94.76
66119;DHT22;52912;48.564;9.302;2024-01-30T05:09:19;1.59;94.55
66119;DHT22;52912;48.564;9.302;2024-01-30T05:11:46;1.68;93.42
66119;DHT22;52912;48.564;9.302;2024-01-30T05:14:11;1.43;93.76
66119;DHT22;52912;48.564;9.302;2024-01-30T05:16:37;1.28;93.87
66119;DHT22;52912;48.564;9.302;2024-01-30T05:19:03;1.28;94.06
66119;DHT22;52912;48.564;9.302;2024-01-30T05:21:28;1.17;94.68
66119;DHT22;52912;48.564;9.302;2024-01-30T05:23:54;1.07;95.31
66119;DHT22;52912;48.564;9.302;2024-01-30T05:26:19;1.10;95.34
66119;DHT22;52912;48.564;9.302;2024-01-30T05:28:46;1.07;95.43
66119;DHT22;52912;48.564;9.302;2024-01-30T05:31:11;1.01;95.10
66119;DHT22;52912;48.564;9.302;2024-01-30T05:33:37;0.99;95.39
66119;DHT22;52912;48.564;9.302;2024-01-30T05:36:02;1.10;95.28
66119;DHT22;52912;48.564;9.302;2024-01-30T05:38:29;1.07;94.96
66119;DHT22;52912;48.564;9.302;2024-01-30T05:40:55;1.00;94.98
66119;DHT22;52912;48.564;9.302;2024-01-30T05:43:20;0.90;95.41
66119;DHT22;52912;48.564;9.302;2024-01-30T05:45:47;0.96;94.98
66119;DHT22;52912;48.564;9.302;2024-01-30T05:48:12;0.90;95.05
66119;DHT22;52912;48.564;9.302;2024-01-30T05:50:38;0.83;95.17
66119;DHT22;52912;48.564;9.302;2024-01-30T05:53:03;0.81;95.25
66119;DHT22;52912;48.564;9.302;2024-01-30T05:55:29;0.83;95.43
66119;DHT22;52912;48.564;9.302;2024-01-30T05:57:54;0.82;95.55
66119;DHT22;52912;48.564;9.302;2024-01-30T06:00:20;0.73;95.71
66119;DHT22;52912;48.564;9.302;2024-01-30T06:02:46;0.76;95.75
66119;DHT22;52912;48.564;9.302;2024-01-30T06:05:12;0.76;95.52
66119;DHT22;52912;48.564;9.302;2024-01-30T06:07:38;0.75;95.62
66119;DHT22;52912;48.564;9.302;2024-01-30T06:10:04;0.69;95.42
66119;DHT22;52912;48.564;9.302;2024-01-30T06:12:30;0.68;95.43
66119;DHT22;52912;48.564;9.302;2024-01-30T06:14:55;0.65;95.20
66119;DHT22;52912;48.564;9.302;2024-01-30T06:17:21;0.62;95.38
66119;DHT22;52912;48.564;9.302;2024-01-30T06:19:47;0.61;95.60
66119;DHT22;52912;48.564;9.302;2024-01-30T06:22:13;0.60;95.95
66119;DHT22;52912;48.564;9.302;2024-01-30T06:24:38;0.61;95.80
66119;DHT22;52912;48.564;9.302;2024-01-30T06:27:04;0.61;95.33
66119;DHT22;52912;48.564;9.302;2024-01-30T06:29:29;0.54;95.37
66119;DHT22;52912;48.564;9.302;2024-01-30T06:31:55;0.53;95.44
66119;DHT22;52912;48.564;9.302;2024-01-30T06:34:21;0.54;95.56
66119;DHT22;52912;48.564;9.302;2024-01-30T06:36:49;0.57;95.43
66119;DHT22;52912;48.564;9.302;2024-01-30T06:39:14;0.58;95.41
66119;DHT22;52912;48.564;9.302;2024-01-30T06:41:40;0.51;95.34
66119;DHT22;52912;48.564;9.302;2024-01-30T06:44:05;0.47;95.69
66119;DHT22;52912;48.564;9.302;2024-01-30T06:46:30;0.44;96.06
66119;DHT22;52912;48.564;9.302;2024-01-30T06:48:56;0.45;96.00
66119;DHT22;52912;48.564;9.302;2024-01-30T06:51:21;0.45;95.82
66119;DHT22;52912;48.564;9.302;2024-01-30T06:53:48;0.44;95.97
66119;DHT22;52912;48.564;9.302;2024-01-30T06:56:14;0.44;95.94
66119;DHT22;52912;48.564;9.302;2024-01-30T06:58:39;0.45;96.11
66119;DHT22;52912;48.564;9.302;2024-01-30T07:01:04;0.50;96.08
66119;DHT22;52912;48.564;9.302;2024-01-30T07:03:30;0.50;95.84
66119;DHT22;52912;48.564;9.302;2024-01-30T07:05:55;0.51;95.73
66119;DHT22;52912;48.564;9.302;2024-01-30T07:08:21;0.54;95.77
66119;DHT22;52912;48.564;9.302;2024-01-30T07:10:48;0.58;95.62
66119;DHT22;52912;48.564;9.302;2024-01-30T07:13:13;0.57;95.54
66119;DHT22;52912;48.564;9.302;2024-01-30T07:15:38;0.60;95.42
66119;DHT22;52912;48.564;9.302;2024-01-30T07:18:06;0.57;95.43
66119;DHT22;52912;48.564;9.302;2024-01-30T07:20:31;0.57;95.39
66119;DHT22;52912;48.564;9.302;2024-01-30T07:22:57;0.57;96.10
66119;DHT22;52912;48.564;9.302;2024-01-30T07:25:23;0.64;95.77
66119;DHT22;52912;48.564;9.302;2024-01-30T07:27:49;0.68;95.57
66119;DHT22;52912;48.564;9.302;2024-01-30T07:30:15;0.73;95.95
66119;DHT22;52912;48.564;9.302;2024-01-30T07:32:40;0.79;95.99
66119;DHT22;52912;48.564;9.302;2024-01-30T07:35:06;0.82;95.65
66119;DHT22;52912;48.564;9.302;2024-01-30T07:37:32;0.86;95.38
66119;DHT22;52912;48.564;9.302;2024-01-30T07:39:57;0.90;94.85
66119;DHT22;52912;48.564;9.302;2024-01-30T07:42:23;0.89;94.99
66119;DHT22;52912;48.564;9.302;2024-01-30T07:44:49;0.93;95.00
66119;DHT22;52912;48.564;9.302;2024-01-30T07:47:15;0.99;94.85
66119;DHT22;52912;48.564;9.302;2024-01-30T07:49:40;1.03;95.03
66119;DHT22;52912;48.564;9.302;2024-01-30T07:52:06;1.13;95.38
66119;DHT22;52912;48.564;9.302;2024-01-30T07:54:31;1.22;95.24
66119;DHT22;52912;48.564;9.302;2024-01-30T07:56:57;1.27;95.06
66119;DHT22;52912;48.564;9.302;2024-01-30T07:59:22;1.38;94.76
66119;DHT22;52912;48.564;9.302;2024-01-30T08:01:49;1.47;94.55
66119;DHT22;52912;48.564;9.302;2024-01-30T08:04:14;1.52;94.21
66119;DHT22;52912;48.564;9.302;2024-01-30T08:06:40;1.61;94.08
66119;DHT22;52912;48.564;9.302;2024-01-30T08:09:05;1.68;93.57
66119;DHT22;52912;48.564;9.302;2024-01-30T08:11:31;1.79;93.48
66119;DHT22;52912;48.564;9.302;2024-01-30T08:13:56;1.90;93.11
66119;DHT22;52912;48.564;9.302;2024-01-30T08:16:21;2.00;92.98
66119;DHT22;52912;48.564;9.302;2024-01-30T08:18:48;2.10;92.54
66119;DHT22;52912;48.564;9.302;2024-01-30T08:21:14;2.21;91.93
66119;DHT22;52912;48.564;9.302;2024-01-30T08:23:39;2.31;91.54
66119;DHT22;52912;48.564;9.302;2024-01-30T08:26:05;2.44;91.31
66119;DHT22;52912;48.564;9.302;2024-01-30T08:28:30;2.53;90.98
66119;DHT22;52912;48.564;9.302;2024-01-30T08:30:56;2.66;90.88
66119;DHT22;52912;48.564;9.302;2024-01-30T08:33:21;2.82;90.32
66119;DHT22;52912;48.564;9.302;2024-01-30T08:35:48;3.07;90.00
66119;DHT22;52912;48.564;9.302;2024-01-30T08:38:13;3.27;89.49
66119;DHT22;52912;48.564;9.302;2024-01-30T08:40:39;3.50;88.94
66119;DHT22;52912;48.564;9.302;2024-01-30T08:43:04;3.69;88.70
66119;DHT22;52912;48.564;9.302;2024-01-30T08:45:30;3.86;87.80
66119;DHT22;52912;48.564;9.302;2024-01-30T08:47:55;4.06;87.53
66119;DHT22;52912;48.564;9.302;2024-01-30T08:50:20;4.20;87.88
66119;DHT22;52912;48.564;9.302;2024-01-30T08:52:47;4.20;87.50
66119;DHT22;52912;48.564;9.302;2024-01-30T08:55:13;4.37;86.89
66119;DHT22;52912;48.564;9.302;2024-01-30T08:57:38;4.41;86.72
66119;DHT22;52912;48.564;9.302;2024-01-30T09:00:05;4.56;86.74
66119;DHT22;52912;48.564;9.302;2024-01-30T09:02:30;4.60;86.50
66119;DHT22;52912;48.564;9.302;2024-01-30T09:04:56;4.70;86.22
66119;DHT22;52912;48.564;9.302;2024-01-30T09:07:21;4.76;86.54
66119;DHT22;52912;48.564;9.302;2024-01-30T09:09:48;4.51;87.18
66119;DHT22;52912;48.564;9.302;2024-01-30T09:12:14;4.72;86.97
66119;DHT22;52912;48.564;9.302;2024-01-30T09:14:40;4.65;87.34
66119;DHT22;52912;48.564;9.302;2024-01-30T09:17:05;4.77;86.82
66119;DHT22;52912;48.564;9.302;2024-01-30T09:19:30;4.97;86.98
66119;DHT22;52912;48.564;9.302;2024-01-30T09:21:56;5.10;85.72
66119;DHT22;52912;48.564;9.302;2024-01-30T09:24:21;5.34;84.72
66119;DHT22;52912;48.564;9.302;2024-01-30T09:26:48;5.42;83.87
66119;DHT22;52912;48.564;9.302;2024-01-30T09:29:14;5.55;83.77
66119;DHT22;52912;48.564;9.302;2024-01-30T09:31:39;5.60;83.73
66119;DHT22;52912;48.564;9.302;2024-01-30T09:34:04;5.56;84.75
66119;DHT22;52912;48.564;9.302;2024-01-30T09:36:31;5.76;84.52
66119;DHT22;52912;48.564;9.302;2024-01-30T09:38:57;6.00;84.27
66119;DHT22;52912;48.564;9.302;2024-01-30T09:41:24;6.39;83.01
66119;DHT22;52912;48.564;9.302;2024-01-30T09:43:51;6.29;83.92
66119;DHT22;52912;48.564;9.302;2024-01-30T09:46:17;6.54;83.86
66119;DHT22;52912;48.564;9.302;2024-01-30T09:48:43;6.85;84.03
66119;DHT22;52912;48.564;9.302;2024-01-30T09:51:09;7.11;83.45
66119;DHT22;52912;48.564;9.302;2024-01-30T09:53:35;7.18;81.70
66119;DHT22;52912;48.564;9.302;2024-01-30T09:56:02;7.29;81.36
66119;DHT22;52912;48.564;9.302;2024-01-30T09:58:28;7.29;81.64
66119;DHT22;52912;48.564;9.302;2024-01-30T10:00:54;7.19;80.43
66119;DHT22;52912;48.564;9.302;2024-01-30T10:03:20;7.04;83.29
66119;DHT22;52912;48.564;9.302;2024-01-30T10:05:50;7.00;83.68
66119;DHT22;52912;48.564;9.302;2024-01-30T10:08:17;7.00;83.53
66119;DHT22;52912;48.564;9.302;2024-01-30T10:10:45;7.04;83.72
66119;DHT22;52912;48.564;9.302;2024-01-30T10:13:10;6.95;83.95
66119;DHT22;52912;48.564;9.302;2024-01-30T10:15:37;7.09;83.89
66119;DHT22;52912;48.564;9.302;2024-01-30T10:18:04;7.21;83.56
66119;DHT22;52912;48.564;9.302;2024-01-30T10:20:30;7.33;83.34
66119;DHT22;52912;48.564;9.302;2024-01-30T10:22:56;7.43;82.15
66119;DHT22;52912;48.564;9.302;2024-01-30T10:25:22;7.59;80.58
66119;DHT22;52912;48.564;9.302;2024-01-30T10:27:52;7.64;79.45
66119;DHT22;52912;48.564;9.302;2024-01-30T10:30:17;7.75;79.13
66119;DHT22;52912;48.564;9.302;2024-01-30T10:32:43;7.80;78.87
66119;DHT22;52912;48.564;9.302;2024-01-30T10:35:10;7.92;79.16
66119;DHT22;52912;48.564;9.302;2024-01-30T10:37:35;7.98;78.83
66119;DHT22;52912;48.564;9.302;2024-01-30T10:40:03;7.97;79.05
66119;DHT22;52912;48.564;9.302;2024-01-30T10:42:31;8.01;78.73
66119;DHT22;52912;48.564;9.302;2024-01-30T10:45:04;8.05;78.43
66119;DHT22;52912;48.564;9.302;2024-01-30T10:47:31;8.12;79.12
66119;DHT22;52912;48.564;9.302;2024-01-30T10:49:59;8.18;79.11
66119;DHT22;52912;48.564;9.302;2024-01-30T10:52:26;8.21;78.00
66119;DHT22;52912;48.564;9.302;2024-01-30T10:54:53;8.28;77.30
66119;DHT22;52912;48.564;9.302;2024-01-30T10:57:18;8.36;76.58
66119;DHT22;52912;48.564;9.302;2024-01-30T10:59:44;8.52;76.99
66119;DHT22;52912;48.564;9.302;2024-01-30T11:02:10;8.57;76.99
66119;DHT22;52912;48.564;9.302;2024-01-30T11:04:36;8.67;76.82
66119;DHT22;52912;48.564;9.302;2024-01-30T11:07:02;8.81;77.01
66119;DHT22;52912;48.564;9.302;2024-01-30T11:09:29;8.85;74.79
66119;DHT22;52912;48.564;9.302;2024-01-30T11:11:56;8.97;73.31
66119;DHT22;52912;48.564;9.302;2024-01-30T11:14:23;9.08;73.89
66119;DHT22;52912;48.564;9.302;2024-01-30T11:16:49;9.08;72.55
66119;DHT22;52912;48.564;9.302;2024-01-30T11:19:14;9.22;73.58
66119;DHT22;52912;48.564;9.302;2024-01-30T11:21:41;9.29;74.92
66119;DHT22;52912;48.564;9.302;2024-01-30T11:24:07;9.39;74.79
66119;DHT22;52912;48.564;9.302;2024-01-30T11:26:34;9.40;74.33
66119;DHT22;52912;48.564;9.302;2024-01-30T11:29:03;9.36;73.68
66119;DHT22;52912;48.564;9.302;2024-01-30T11:31:28;9.42;73.76
66119;DHT22;52912;48.564;9.302;2024-01-30T11:33:54;9.47;72.37
66119;DHT22;52912;48.564;9.302;2024-01-30T11:36:25;9.46;72.68
66119;DHT22;52912;48.564;9.302;2024-01-30T11:38:50;9.43;71.00
66119;DHT22;52912;48.564;9.302;2024-01-30T11:41:16;9.57;71.55
66119;DHT22;52912;48.564;9.302;2024-01-30T11:43:43;9.57;71.51
66119;DHT22;52912;48.564;9.302;2024-01-30T11:46:08;9.65;71.89
66119;DHT22;52912;48.564;9.302;2024-01-30T11:48:34;9.64;71.83
66119;DHT22;52912;48.564;9.302;2024-01-30T11:51:00;9.64;71.75
66119;DHT22;52912;48.564;9.302;2024-01-30T11:53:25;9.67;71.05
66119;DHT22;52912;48.564;9.302;2024-01-30T11:55:50;9.74;71.00
66119;DHT22;52912;48.564;9.302;2024-01-30T11:58:16;9.82;71.20
66119;DHT22;52912;48.564;9.302;2024-01-30T12:00:43;9.87;71.08
66119;DHT22;52912;48.564;9.302;2024-01-30T12:03:17;9.92;70.98
66119;DHT22;52912;48.564;9.302;2024-01-30T12:05:43;10.02;71.51
66119;DHT22;52912;48.564;9.302;2024-01-30T12:08:14;10.15;70.50
66119;DHT22;52912;48.564;9.302;2024-01-30T12:10:40;10.30;70.19
66119;DHT22;52912;48.564;9.302;2024-01-30T12:13:05;10.43;70.76
66119;DHT22;52912;48.564;9.302;2024-01-30T12:15:31;10.53;69.83
66119;DHT22;52912;48.564;9.302;2024-01-30T12:18:05;10.52;69.83
66119;DHT22;52912;48.564;9.302;2024-01-30T12:20:31;10.56;69.26
66119;DHT22;52912;48.564;9.302;2024-01-30T12:22:56;10.50;68.99
66119;DHT22;52912;48.564;9.302;2024-01-30T12:25:22;10.53;69.03
66119;DHT22;52912;48.564;9.302;2024-01-30T12:27:49;10.60;68.41
66119;DHT22;52912;48.564;9.302;2024-01-30T12:30:15;10.71;68.74
66119;DHT22;52912;48.564;9.302;2024-01-30T12:32:42;10.71;68.65
66119;DHT22;52912;48.564;9.302;2024-01-30T12:35:09;10.67;68.44
66119;DHT22;52912;48.564;9.302;2024-01-30T12:37:35;10.72;68.72
66119;DHT22;52912;48.564;9.302;2024-01-30T12:40:01;10.81;68.43
66119;DHT22;52912;48.564;9.302;2024-01-30T12:42:26;10.81;68.03
66119;DHT22;52912;48.564;9.302;2024-01-30T12:44:52;10.81;68.44
66119;DHT22;52912;48.564;9.302;2024-01-30T12:47:17;10.91;68.79
66119;DHT22;52912;48.564;9.302;2024-01-30T12:49:43;10.99;68.35
66119;DHT22;52912;48.564;9.302;2024-01-30T12:52:10;11.05;68.29
66119;DHT22;52912;48.564;9.302;2024-01-30T12:54:35;11.14;68.24
66119;DHT22;52912;48.564;9.302;2024-01-30T12:57:01;11.33;67.86
66119;DHT22;52912;48.564;9.302;2024-01-30T12:59:26;11.49;67.42
66119;DHT22;52912;48.564;9.302;2024-01-30T13:01:52;11.68;67.42
66119;DHT22;52912;48.564;9.302;2024-01-30T13:04:17;11.77;66.72
66119;DHT22;52912;48.564;9.302;2024-01-30T13:06:43;11.91;66.83
66119;DHT22;52912;48.564;9.302;2024-01-30T13:09:10;12.01;65.84
66119;DHT22;52912;48.564;9.302;2024-01-30T13:11:35;12.18;66.87
66119;DHT22;52912;48.564;9.302;2024-01-30T13:14:00;12.15;66.13
66119;DHT22;52912;48.564;9.302;2024-01-30T13:16:26;12.39;66.08
66119;DHT22;52912;48.564;9.302;2024-01-30T13:18:51;12.58;65.96
66119;DHT22;52912;48.564;9.302;2024-01-30T13:21:17;12.77;65.72
66119;DHT22;52912;48.564;9.302;2024-01-30T13:23:42;12.85;65.57
66119;DHT22;52912;48.564;9.302;2024-01-30T13:26:09;12.95;65.25
66119;DHT22;52912;48.564;9.302;2024-01-30T13:28:34;12.73;64.95
66119;DHT22;52912;48.564;9.302;2024-01-30T13:31:00;12.63;66.16
66119;DHT22;52912;48.564;9.302;2024-01-30T13:33:26;12.54;65.80
66119;DHT22;52912;48.564;9.302;2024-01-30T13:35:51;12.43;66.17
66119;DHT22;52912;48.564;9.302;2024-01-30T13:38:17;12.44;66.03
66119;DHT22;52912;48.564;9.302;2024-01-30T13:40:42;12.46;66.07
66119;DHT22;52912;48.564;9.302;2024-01-30T13:43:09;12.41;66.36
66119;DHT22;52912;48.564;9.302;2024-01-30T13:45:34;12.37;66.38
66119;DHT22;52912;48.564;9.302;2024-01-30T13:48:00;12.26;65.94
66119;DHT22;52912;48.564;9.302;2024-01-30T13:50:25;12.19;66.56
66119;DHT22;52912;48.564;9.302;2024-01-30T13:52:51;12.15;66.59
66119;DHT22;52912;48.564;9.302;2024-01-30T13:55:16;12.25;66.57
66119;DHT22;52912;48.564;9.302;2024-01-30T13:57:42;12.21;66.66
66119;DHT22;52912;48.564;9.302;2024-01-30T14:00:13;12.22;67.40
66119;DHT22;52912;48.564;9.302;2024-01-30T14:02:38;12.15;66.77
66119;DHT22;52912;48.564;9.302;2024-01-30T14:05:04;12.08;66.81
66119;DHT22;52912;48.564;9.302;2024-01-30T14:07:30;12.09;66.29
66119;DHT22;52912;48.564;9.302;2024-01-30T14:09:55;12.09;66.92
66119;DHT22;52912;48.564;9.302;2024-01-30T14:12:21;12.12;66.93
66119;DHT22;52912;48.564;9.302;2024-01-30T14:14:46;12.12;66.39
66119;DHT22;52912;48.564;9.302;2024-01-30T14:17:13;12.18;66.88
66119;DHT22;52912;48.564;9.302;2024-01-30T14:19:39;12.15;67.20
66119;DHT22;52912;48.564;9.302;2024-01-30T14:22:04;12.15;67.07
66119;DHT22;52912;48.564;9.302;2024-01-30T14:24:30;12.15;67.25
66119;DHT22;52912;48.564;9.302;2024-01-30T14:26:55;12.16;67.10
66119;DHT22;52912;48.564;9.302;2024-01-30T14:29:21;12.15;67.37
66119;DHT22;52912;48.564;9.302;2024-01-30T14:31:46;12.15;67.24
66119;DHT22;52912;48.564;9.302;2024-01-30T14:34:13;12.21;67.08
66119;DHT22;52912;48.564;9.302;2024-01-30T14:36:39;12.26;67.34
66119;DHT22;52912;48.564;9.302;2024-01-30T14:39:04;12.37;67.08
66119;DHT22;52912;48.564;9.302;2024-01-30T14:41:30;12.40;67.32
66119;DHT22;52912;48.564;9.302;2024-01-30T14:43:55;12.44;66.86
66119;DHT22;52912;48.564;9.302;2024-01-30T14:46:21;12.49;66.38
66119;DHT22;52912;48.564;9.302;2024-01-30T14:48:47;12.54;66.50
66119;DHT22;52912;48.564;9.302;2024-01-30T14:51:13;12.51;66.85
66119;DHT22;52912;48.564;9.302;2024-01-30T14:53:39;12.47;65.90
66119;DHT22;52912;48.564;9.302;2024-01-30T14:56:05;12.37;66.21
66119;DHT22;52912;48.564;9.302;2024-01-30T14:58:31;12.34;66.34
66119;DHT22;52912;48.564;9.302;2024-01-30T15:00:56;12.30;66.55
66119;DHT22;52912;48.564;9.302;2024-01-30T15:03:22;12.30;66.78
66119;DHT22;52912;48.564;9.302;2024-01-30T15:05:47;12.26;66.74
66119;DHT22;52912;48.564;9.302;2024-01-30T15:08:14;12.23;66.87
66119;DHT22;52912;48.564;9.302;2024-01-30T15:10:40;12.19;67.01
66119;DHT22;52912;48.564;9.302;2024-01-30T15:13:05;12.11;66.96
66119;DHT22;52912;48.564;9.302;2024-01-30T15:15:31;12.01;67.22
66119;DHT22;52912;48.564;9.302;2024-01-30T15:17:56;11.92;66.86
66119;DHT22;52912;48.564;9.302;2024-01-30T15:20:22;11.87;67.56
66119;DHT22;52912;48.564;9.302;2024-01-30T15:22:47;11.77;67.91
66119;DHT22;52912;48.564;9.302;2024-01-30T15:25:14;11.68;68.67
66119;DHT22;52912;48.564;9.302;2024-01-30T15:27:39;11.60;69.77
66119;DHT22;52912;48.564;9.302;2024-01-30T15:30:06;11.49;70.86
66119;DHT22;52912;48.564;9.302;2024-01-30T15:32:31;11.30;71.66